Time;durP1;ratioP1;P1;durP2;ratioP2;P2;SDS_P1;SDS_P2;PMS_P1;PMS_P2;Temp;Humidity;BMP_temperature;BMP_pressure;BME280_temperature;BME280_humidity;BME280_pressure;Samples;Min_cycle;Max_cycle;Signal;HPM_P1;HPM_P2
2021/12/31 00:02:22;;;;;;;;;11.25;7.00;;;;;17.76;83.98;101804.50;5077053;28;61934;-76
2021/12/31 00:04:50;;;;;;;;;13.50;8.50;;;;;17.72;83.87;101803.50;5076893;28;61798;-76
2021/12/31 00:07:16;;;;;;;;;7.00;6.50;;;;;17.73;84.07;101805.28;5061719;28;62059;-76
2021/12/31 00:09:42;;;;;;;;;11.75;10.25;;;;;17.69;83.71;101806.03;5060025;28;62164;-76
2021/12/31 00:12:08;;;;;;;;;10.00;9.00;;;;;17.66;84.03;101800.66;5061120;28;61842;-75
2021/12/31 00:14:37;;;;;;;;;10.75;8.25;;;;;17.66;84.31;101802.41;5061523;28;62023;-76
2021/12/31 00:17:07;;;;;;;;;7.75;7.75;;;;;17.62;84.53;101795.19;5060260;28;62233;-76
2021/12/31 00:19:37;;;;;;;;;10.25;9.00;;;;;17.61;84.25;101789.00;5060385;28;61967;-76
2021/12/31 00:22:19;;;;;;;;;7.25;6.00;;;;;17.56;84.48;101780.84;5076539;28;61864;-76
2021/12/31 00:24:45;;;;;;;;;11.00;8.75;;;;;17.56;84.36;101778.19;5061248;28;61823;-76
2021/12/31 00:27:11;;;;;;;;;9.50;8.75;;;;;17.57;84.33;101771.16;5076604;27;61921;-76
2021/12/31 00:29:36;;;;;;;;;10.25;7.25;;;;;17.51;84.30;101776.28;5060629;28;61886;-76
2021/12/31 00:32:01;;;;;;;;;13.75;8.00;;;;;17.45;84.43;101778.72;5060932;28;61885;-76
2021/12/31 00:34:28;;;;;;;;;7.75;6.50;;;;;17.50;84.35;101787.72;5059323;28;61957;-76
2021/12/31 00:36:53;;;;;;;;;13.25;9.50;;;;;17.45;84.22;101781.38;5060846;28;61836;-75
2021/12/31 00:39:19;;;;;;;;;8.00;8.00;;;;;17.46;84.26;101794.72;5075863;28;64923;-75
2021/12/31 00:41:46;;;;;;;;;11.50;8.50;;;;;17.45;84.16;101798.19;5061029;28;61884;-76
2021/12/31 00:44:12;;;;;;;;;11.50;9.25;;;;;17.43;84.04;101796.34;5060876;28;62049;-76
2021/12/31 00:46:37;;;;;;;;;13.25;9.50;;;;;17.38;84.23;101791.78;5061154;28;61808;-76
2021/12/31 00:49:03;;;;;;;;;10.25;9.25;;;;;17.36;84.13;101780.22;5060367;28;61898;-76
2021/12/31 00:51:29;;;;;;;;;8.75;8.25;;;;;17.34;84.16;101787.22;5075883;28;62240;-76
2021/12/31 00:53:56;;;;;;;;;9.25;7.00;;;;;17.35;84.22;101788.13;5060953;28;62246;-76
2021/12/31 00:56:21;;;;;;;;;14.50;11.50;;;;;17.34;83.82;101773.06;5060483;28;61834;-76
2021/12/31 00:58:47;;;;;;;;;15.50;12.25;;;;;17.33;83.90;101773.91;5059998;28;62490;-76
2021/12/31 01:01:20;;;;;;;;;14.00;12.50;;;;;17.33;84.06;101779.22;5060559;28;61745;-75
2021/12/31 01:03:47;;;;;;;;;15.50;13.50;;;;;17.30;83.99;101784.44;5060832;28;62190;-76
2021/12/31 01:06:13;;;;;;;;;15.75;11.75;;;;;17.27;84.18;101776.38;5076205;28;62024;-76
2021/12/31 01:08:39;;;;;;;;;11.50;9.25;;;;;17.23;84.14;101775.38;5059864;28;61988;-76
2021/12/31 01:11:05;;;;;;;;;11.50;10.50;;;;;17.22;84.16;101780.63;5076033;28;62006;-76
2021/12/31 01:16:17;;;;;;;;;14.50;10.00;;;;;17.16;84.21;101763.66;5060713;28;61892;-76
2021/12/31 01:21:14;;;;;;;;;15.75;12.25;;;;;17.16;84.04;101773.38;5061812;28;61839;-76
2021/12/31 01:23:40;;;;;;;;;10.50;9.00;;;;;17.13;83.83;101765.31;5063950;28;61692;-76
2021/12/31 01:26:06;;;;;;;;;11.50;10.50;;;;;17.11;83.85;101765.25;5079456;27;61962;-76
2021/12/31 01:28:31;;;;;;;;;13.00;10.00;;;;;17.08;83.56;101767.81;5063183;28;62324;-76
2021/12/31 01:30:57;;;;;;;;;13.00;9.25;;;;;17.08;83.45;101773.09;5063948;28;61778;-76
2021/12/31 01:33:22;;;;;;;;;10.50;8.25;;;;;17.07;83.12;101784.56;5054890;28;62064;-76
2021/12/31 01:35:48;;;;;;;;;10.50;9.50;;;;;17.06;83.15;101784.53;5043267;28;61751;-76
2021/12/31 01:38:15;;;;;;;;;9.00;9.00;;;;;17.02;83.11;101787.91;5058502;28;64837;-76
2021/12/31 01:40:40;;;;;;;;;12.75;10.75;;;;;17.00;83.02;101790.50;5043494;28;61821;-76
2021/12/31 01:43:06;;;;;;;;;10.25;8.75;;;;;16.98;83.01;101786.91;5043837;28;62262;-76
2021/12/31 01:45:34;;;;;;;;;16.00;10.50;;;;;16.96;82.95;101780.66;5043726;28;62057;-76
2021/12/31 01:48:07;;;;;;;;;15.25;12.50;;;;;16.95;82.83;101793.00;5043085;28;61894;-76
2021/12/31 01:50:34;;;;;;;;;9.50;9.50;;;;;16.94;83.11;101792.94;5042956;28;61918;-76
2021/12/31 01:53:00;;;;;;;;;12.00;11.00;;;;;16.93;82.94;101793.81;5043715;28;61944;-76
2021/12/31 01:55:30;;;;;;;;;12.00;8.25;;;;;16.90;82.89;101791.03;5042957;28;62013;-76
2021/12/31 01:57:56;;;;;;;;;11.50;10.50;;;;;16.87;83.04;101786.53;5042877;28;61861;-77
2021/12/31 02:00:22;;;;;;;;;13.50;11.50;;;;;16.85;82.88;101779.38;5058912;28;61962;-76
2021/12/31 02:02:48;;;;;;;;;9.50;8.50;;;;;16.81;82.49;101783.66;5058630;28;62096;-76
2021/12/31 02:05:14;;;;;;;;;14.25;7.50;;;;;16.80;82.35;101784.53;5058464;28;62110;-77
2021/12/31 02:07:40;;;;;;;;;11.75;10.00;;;;;16.75;82.58;101775.47;5042702;28;62956;-76
2021/12/31 02:10:08;;;;;;;;;7.00;7.00;;;;;16.80;82.46;101771.28;5043117;28;61730;-76
2021/12/31 02:12:34;;;;;;;;;10.50;10.25;;;;;16.77;82.78;101766.72;5043072;28;61747;-76
2021/12/31 02:15:01;;;;;;;;;16.00;11.50;;;;;16.75;82.73;101776.38;5043299;28;61868;-76
2021/12/31 02:17:26;;;;;;;;;8.75;7.25;;;;;16.70;82.77;101775.31;5042381;28;61805;-76
2021/12/31 02:20:00;;;;;;;;;11.50;9.00;;;;;16.72;82.64;101767.41;5042568;28;62049;-76
2021/12/31 02:22:28;;;;;;;;;12.00;8.25;;;;;16.69;82.84;101764.66;5043318;28;61994;-77
2021/12/31 02:24:55;;;;;;;;;12.25;11.00;;;;;16.67;82.58;101761.06;5042957;28;61980;-76
2021/12/31 02:27:22;;;;;;;;;14.50;9.00;;;;;16.63;82.48;101775.94;5057432;28;64036;-77
2021/12/31 02:29:47;;;;;;;;;13.00;10.50;;;;;16.64;82.41;101769.78;5042568;28;61738;-76
2021/12/31 02:32:13;;;;;;;;;15.00;10.00;;;;;16.64;82.30;101777.72;5045082;28;61988;-76
2021/12/31 02:34:39;;;;;;;;;11.75;11.00;;;;;16.61;82.21;101769.69;5062322;28;62186;-76
2021/12/31 02:37:04;;;;;;;;;11.25;11.25;;;;;16.61;82.11;101766.13;5060860;28;65007;-77
2021/12/31 02:39:30;;;;;;;;;12.50;10.25;;;;;16.60;82.07;101765.22;5062757;28;62061;-76
2021/12/31 02:41:55;;;;;;;;;12.75;11.25;;;;;16.56;82.06;101750.97;5061639;28;62101;-76
2021/12/31 02:44:20;;;;;;;;;11.75;10.50;;;;;16.53;81.92;101744.66;5078685;28;62211;-76
2021/12/31 02:46:46;;;;;;;;;19.00;12.00;;;;;16.47;81.97;101744.44;5077640;28;63686;-76
2021/12/31 02:49:11;;;;;;;;;16.75;11.75;;;;;16.44;82.09;101749.63;5062567;28;61837;-76
2021/12/31 02:51:37;;;;;;;;;10.25;10.25;;;;;16.45;81.83;101739.09;5078002;28;61789;-76
2021/12/31 02:54:08;;;;;;;;;12.75;11.75;;;;;16.47;82.14;101742.66;5062740;28;61745;-76
2021/12/31 02:56:34;;;;;;;;;14.75;10.75;;;;;16.46;82.08;101732.94;5061702;28;62750;-76
2021/12/31 02:59:01;;;;;;;;;10.75;10.75;;;;;16.44;81.68;101733.72;5062420;28;62072;-76
2021/12/31 03:01:26;;;;;;;;;12.75;10.25;;;;;16.40;81.66;101738.00;5062511;28;61987;-77
2021/12/31 03:03:55;;;;;;;;;9.00;7.00;;;;;16.40;81.64;101747.72;5062448;28;61963;-76
2021/12/31 03:06:21;;;;;;;;;17.75;11.00;;;;;16.40;81.22;101745.06;5077388;28;63958;-76
2021/12/31 03:08:51;;;;;;;;;13.25;11.00;;;;;16.36;81.53;101746.69;5077732;28;62168;-77
2021/12/31 03:11:21;;;;;;;;;14.00;10.00;;;;;16.34;81.55;101743.09;5062321;28;62055;-76
2021/12/31 03:13:51;;;;;;;;;10.00;10.00;;;;;16.25;81.86;101758.66;5062448;28;61951;-76
2021/12/31 03:16:20;;;;;;;;;12.50;10.00;;;;;16.17;82.12;101765.41;5077265;28;63801;-76
2021/12/31 03:18:46;;;;;;;;;15.00;12.25;;;;;16.09;82.36;101773.97;5077750;27;62106;-77
2021/12/31 03:21:20;;;;;;;;;16.00;11.75;;;;;16.10;82.74;101778.41;5062158;28;61869;-76
2021/12/31 03:23:46;;;;;;;;;13.00;11.00;;;;;16.09;82.99;101775.75;5077887;27;62097;-76
2021/12/31 03:26:12;;;;;;;;;10.75;10.25;;;;;15.82;83.55;101781.75;5061399;28;62150;-76
2021/12/31 03:28:37;;;;;;;;;20.75;13.25;;;;;16.09;82.70;101791.63;5060786;28;61885;-77
2021/12/31 03:31:03;;;;;;;;;12.75;10.00;;;;;16.12;82.57;101791.72;5077457;27;62040;-77
2021/12/31 03:33:28;;;;;;;;;13.50;13.25;;;;;16.15;82.13;101789.19;5047435;28;61851;-76
2021/12/31 03:35:54;;;;;;;;;15.00;10.25;;;;;16.14;81.60;101782.09;5040750;28;62585;-76
2021/12/31 03:38:19;;;;;;;;;11.50;10.25;;;;;16.10;81.12;101767.81;5041855;28;61884;-76
2021/12/31 03:40:46;;;;;;;;;16.50;10.75;;;;;16.07;81.33;101751.84;5041857;28;62159;-76
2021/12/31 03:43:12;;;;;;;;;12.50;10.00;;;;;16.10;81.14;101749.28;5041052;28;62336;-76
2021/12/31 03:45:38;;;;;;;;;10.50;10.50;;;;;16.09;81.04;101750.16;5056550;28;63746;-76
2021/12/31 03:48:04;;;;;;;;;11.75;11.75;;;;;15.69;82.47;101753.88;5041381;28;62006;-76
2021/12/31 03:50:30;;;;;;;;;17.75;12.50;;;;;15.65;82.53;101740.47;5041730;28;61967;-76
2021/12/31 03:52:55;;;;;;;;;16.00;10.25;;;;;15.59;82.68;101735.81;5041707;28;62080;-76
2021/12/31 03:55:21;;;;;;;;;14.00;11.50;;;;;15.52;83.34;101725.84;5040725;28;61711;-76
2021/12/31 03:57:47;;;;;;;;;10.75;10.75;;;;;15.77;82.44;101711.88;5041809;28;61870;-77
2021/12/31 04:00:13;;;;;;;;;16.75;12.00;;;;;15.83;82.13;101712.09;5056564;28;62194;-76
2021/12/31 04:02:38;;;;;;;;;10.25;8.75;;;;;15.86;81.65;101722.78;5041619;28;61777;-76
2021/12/31 04:05:04;;;;;;;;;9.00;8.00;;;;;15.92;81.74;101719.47;5056078;28;63718;-76
2021/12/31 04:07:30;;;;;;;;;9.00;9.00;;;;;15.92;81.54;101714.19;5056832;28;61832;-77
2021/12/31 04:09:55;;;;;;;;;12.25;7.25;;;;;15.90;81.23;101718.53;5041245;28;61935;-76
2021/12/31 04:12:20;;;;;;;;;11.25;8.75;;;;;15.93;81.47;101715.97;5041643;28;61780;-76
2021/12/31 04:14:46;;;;;;;;;9.25;7.75;;;;;15.95;81.22;101733.72;5040404;28;62023;-76
2021/12/31 04:17:11;;;;;;;;;13.75;10.00;;;;;15.95;81.23;101724.88;5041074;28;61909;-76
2021/12/31 04:19:37;;;;;;;;;12.50;10.75;;;;;15.93;81.45;101714.22;5039603;28;62045;-76
2021/12/31 04:22:03;;;;;;;;;13.00;12.25;;;;;15.91;81.64;101704.44;5041130;28;61872;-77
2021/12/31 04:27:11;;;;;;;;;12.75;10.75;;;;;15.85;81.62;101697.19;5040665;28;61809;-76
2021/12/31 04:29:37;;;;;;;;;14.00;11.75;;;;;15.86;81.66;101706.00;5040978;28;62280;-76
2021/12/31 04:32:04;;;;;;;;;14.25;12.50;;;;;15.87;81.53;101707.78;5058082;28;61824;-76
2021/12/31 04:34:30;;;;;;;;;12.75;12.00;;;;;15.86;81.32;101703.38;5060281;28;61906;-76
2021/12/31 04:36:57;;;;;;;;;11.25;10.25;;;;;15.85;81.16;101689.22;5060850;28;61968;-76
2021/12/31 04:39:22;;;;;;;;;17.00;12.00;;;;;15.87;81.04;101695.44;5059709;28;61781;-76
2021/12/31 04:41:48;;;;;;;;;9.75;8.75;;;;;15.84;80.76;101698.00;5060023;28;61813;-76
2021/12/31 04:44:14;;;;;;;;;8.25;8.25;;;;;15.81;80.81;101704.91;5059862;28;62039;-76
2021/12/31 04:46:39;;;;;;;;;11.00;9.75;;;;;15.79;80.77;101710.19;5061099;28;62051;-76
2021/12/31 04:49:06;;;;;;;;;16.00;11.25;;;;;15.81;80.89;101712.84;5059613;28;61914;-77
2021/12/31 04:51:33;;;;;;;;;10.25;9.00;;;;;15.80;80.34;101730.50;5059575;28;62089;-77
2021/12/31 04:53:58;;;;;;;;;12.25;12.00;;;;;15.75;80.40;101721.50;5058522;28;63761;-77
2021/12/31 04:56:24;;;;;;;;;9.50;9.00;;;;;15.77;80.52;101725.09;5058935;28;62081;-76
2021/12/31 04:58:49;;;;;;;;;10.50;9.00;;;;;15.73;80.65;101724.06;5060613;28;61791;-76
2021/12/31 05:01:16;;;;;;;;;7.00;7.00;;;;;15.75;80.51;101713.56;5059325;28;62027;-76
2021/12/31 05:03:42;;;;;;;;;10.00;7.75;;;;;15.76;80.44;101706.50;5058895;28;64100;-76
2021/12/31 05:06:07;;;;;;;;;9.00;7.25;;;;;15.70;80.17;101712.41;5060390;28;61857;-76
2021/12/31 05:08:33;;;;;;;;;11.00;8.25;;;;;15.66;80.31;101721.06;5060682;28;61803;-76
2021/12/31 05:10:58;;;;;;;;;8.00;7.75;;;;;15.68;80.36;101720.31;5059523;28;61916;-76
2021/12/31 05:13:24;;;;;;;;;6.75;4.75;;;;;15.70;80.37;101726.59;5059737;28;62133;-76
2021/12/31 05:15:52;;;;;;;;;9.00;8.00;;;;;15.68;80.37;101730.91;5060647;28;61936;-76
2021/12/31 05:18:18;;;;;;;;;12.25;9.00;;;;;15.69;80.26;101716.81;5059076;28;61789;-76
2021/12/31 05:20:43;;;;;;;;;10.25;8.00;;;;;15.64;80.25;101699.88;5059232;28;61907;-76
2021/12/31 05:23:09;;;;;;;;;11.75;9.00;;;;;15.60;80.20;101716.47;5059749;28;62621;-76
2021/12/31 05:25:34;;;;;;;;;15.25;10.00;;;;;15.56;80.65;101711.91;5060351;28;61726;-76
2021/12/31 05:28:00;;;;;;;;;10.50;9.75;;;;;15.60;80.29;101708.53;5060185;28;61932;-76
2021/12/31 05:30:25;;;;;;;;;10.00;8.75;;;;;15.61;79.84;101704.13;5060377;28;62142;-76
2021/12/31 05:32:52;;;;;;;;;12.25;8.00;;;;;15.62;80.27;101698.00;5049956;28;64572;-76
2021/12/31 05:35:17;;;;;;;;;5.50;5.50;;;;;15.60;80.08;101686.47;5039824;28;61766;-78
2021/12/31 05:37:43;;;;;;;;;8.75;7.00;;;;;15.61;80.30;101685.59;5040317;28;62024;-76
2021/12/31 05:40:10;;;;;;;;;7.50;6.75;;;;;15.60;80.45;101681.19;5055666;28;61779;-76
2021/12/31 05:42:35;;;;;;;;;7.75;7.75;;;;;15.55;80.43;101683.63;5039224;28;61925;-76
2021/12/31 05:45:00;;;;;;;;;9.00;6.00;;;;;15.54;80.60;101666.84;5039859;28;61971;-76
2021/12/31 05:47:26;;;;;;;;;6.00;4.50;;;;;15.59;80.55;101660.81;5039960;28;62469;-76
2021/12/31 05:49:52;;;;;;;;;7.75;6.50;;;;;15.58;80.71;101664.34;5040195;28;61901;-76
2021/12/31 05:52:17;;;;;;;;;4.00;4.00;;;;;15.60;80.94;101657.34;5039410;28;61831;-76
2021/12/31 05:54:44;;;;;;;;;8.25;6.50;;;;;15.61;80.81;101660.03;5055124;28;62088;-76
2021/12/31 05:57:09;;;;;;;;;6.00;6.00;;;;;15.62;80.82;101668.91;5055098;28;61987;-76
2021/12/31 05:59:34;;;;;;;;;7.00;6.00;;;;;15.63;80.64;101670.69;5039875;28;61813;-76
2021/12/31 06:02:00;;;;;;;;;5.50;5.50;;;;;15.67;80.46;101676.16;5054828;28;63756;-76
2021/12/31 06:04:25;;;;;;;;;6.50;4.25;;;;;15.70;80.10;101685.94;5039699;28;61893;-76
2021/12/31 06:06:51;;;;;;;;;7.75;7.75;;;;;15.65;80.03;101701.66;5056330;28;61979;-76
2021/12/31 06:09:16;;;;;;;;;8.25;5.75;;;;;15.65;80.15;101712.25;5058818;27;61790;-76
2021/12/31 06:11:42;;;;;;;;;5.50;5.50;;;;;15.67;80.12;101707.03;5057911;28;64712;-76
2021/12/31 06:14:10;;;;;;;;;10.50;4.50;;;;;15.73;80.33;101709.94;5058690;28;61916;-75
2021/12/31 06:16:41;;;;;;;;;8.50;5.00;;;;;15.51;80.40;101710.78;5043053;28;61956;-76
2021/12/31 06:19:07;;;;;;;;;7.00;7.00;;;;;15.65;80.89;101692.81;5043183;28;61853;-76
2021/12/31 06:21:39;;;;;;;;;9.75;5.25;;;;;15.76;80.00;101693.25;5057626;28;63935;-76
2021/12/31 06:24:04;;;;;;;;;6.75;4.50;;;;;15.78;80.32;101681.00;5043079;28;62122;-76
2021/12/31 06:26:31;;;;;;;;;8.25;5.25;;;;;15.82;80.13;101685.56;5042601;28;62092;-76
2021/12/31 06:28:57;;;;;;;;;8.25;5.00;;;;;15.86;79.89;101684.84;5043084;28;61847;-75
2021/12/31 06:31:23;;;;;;;;;8.00;6.25;;;;;15.81;79.88;101683.75;5057666;28;64824;-76
2021/12/31 06:33:48;;;;;;;;;8.50;6.00;;;;;15.83;79.81;101696.22;5058071;28;62034;-75
2021/12/31 06:36:14;;;;;;;;;11.50;7.00;;;;;15.85;79.96;101689.22;5042514;28;61841;-76
2021/12/31 06:38:42;;;;;;;;;6.25;5.25;;;;;15.86;79.59;101684.84;5042768;28;62068;-75
2021/12/31 06:41:08;;;;;;;;;3.25;3.25;;;;;15.87;79.76;101684.88;5042179;28;62781;-76
2021/12/31 06:43:33;;;;;;;;;6.50;5.00;;;;;15.83;79.73;101690.00;5057956;28;61906;-76
2021/12/31 06:45:58;;;;;;;;;8.75;5.25;;;;;15.85;79.57;101704.19;5042680;28;61975;-76
2021/12/31 06:48:24;;;;;;;;;7.00;4.00;;;;;15.80;79.57;101700.47;5042971;28;62041;-76
2021/12/31 06:50:49;;;;;;;;;6.25;3.25;;;;;15.79;79.58;101699.59;5041703;28;61817;-75
2021/12/31 06:53:15;;;;;;;;;7.00;6.00;;;;;15.78;79.80;101684.53;5042642;28;61770;-74
2021/12/31 06:55:40;;;;;;;;;3.50;3.50;;;;;15.77;79.60;101669.50;5041952;28;62237;-76
2021/12/31 06:58:06;;;;;;;;;8.25;7.00;;;;;15.75;79.55;101673.84;5042632;28;61937;-76
2021/12/31 07:00:31;;;;;;;;;7.00;5.75;;;;;15.74;79.73;101683.53;5041805;28;61757;-76
2021/12/31 07:03:21;;;;;;;;;5.00;4.00;;;;;15.77;79.55;101703.94;5057626;28;62055;-76
2021/12/31 07:05:47;;;;;;;;;5.50;4.25;;;;;15.72;79.34;101713.41;5047681;28;61852;-74
2021/12/31 07:08:13;;;;;;;;;4.75;4.00;;;;;15.72;79.12;101716.06;5047027;28;62153;-75
2021/12/31 07:10:39;;;;;;;;;6.00;4.75;;;;;15.71;79.49;101723.09;5049328;28;62030;-75
2021/12/31 07:13:10;;;;;;;;;7.00;5.50;;;;;15.70;79.60;101726.59;5052708;28;61986;-75
2021/12/31 07:15:49;;;;;;;;;9.25;7.00;;;;;15.66;79.34;101736.97;5052981;28;61935;-76
2021/12/31 07:18:16;;;;;;;;;9.25;6.50;;;;;15.55;79.86;101736.53;5053078;28;61832;-76
2021/12/31 07:20:41;;;;;;;;;7.25;5.75;;;;;15.60;80.10;101739.41;5049573;28;61966;-77
2021/12/31 07:23:10;;;;;;;;;5.50;5.50;;;;;15.68;79.77;101746.78;5053104;28;61895;-75
2021/12/31 07:25:38;;;;;;;;;7.25;5.00;;;;;15.68;79.56;101741.50;5061966;28;61851;-79
2021/12/31 07:28:05;;;;;;;;;6.00;5.50;;;;;15.70;79.66;101730.94;5062436;28;62349;-78
2021/12/31 07:30:31;;;;;;;;;7.25;7.25;;;;;15.70;79.34;101736.25;5058784;28;64970;-78
2021/12/31 07:32:56;;;;;;;;;11.75;8.00;;;;;15.68;79.61;101736.19;5061452;28;62044;-76
2021/12/31 07:35:23;;;;;;;;;7.25;7.25;;;;;15.69;79.56;101727.41;5061065;28;61996;-75
2021/12/31 07:37:52;;;;;;;;;9.25;8.00;;;;;15.67;79.49;101722.91;5061614;28;61963;-76
2021/12/31 07:40:25;;;;;;;;;12.50;9.50;;;;;15.70;79.77;101717.72;5059730;28;64070;-76
2021/12/31 07:42:51;;;;;;;;;13.75;12.50;;;;;15.67;79.22;101709.66;5060843;28;61853;-75
2021/12/31 07:45:16;;;;;;;;;15.75;13.00;;;;;15.69;79.37;101711.53;5061688;28;62057;-74
2021/12/31 07:47:42;;;;;;;;;14.50;10.50;;;;;15.68;79.38;101704.44;5077449;27;61932;-74
2021/12/31 07:50:08;;;;;;;;;13.75;8.75;;;;;15.66;79.47;101708.78;5061059;28;61975;-74
2021/12/31 07:52:34;;;;;;;;;11.50;9.25;;;;;15.65;79.06;101724.59;5060716;28;61877;-75
2021/12/31 07:54:59;;;;;;;;;12.00;11.00;;;;;15.58;79.50;101733.13;5060266;28;62778;-74
2021/12/31 07:57:24;;;;;;;;;9.25;9.00;;;;;15.63;79.13;101732.44;5060044;28;62713;-74
2021/12/31 07:59:50;;;;;;;;;16.50;11.25;;;;;15.65;79.10;101725.47;5059282;28;65019;-74
2021/12/31 08:02:15;;;;;;;;;13.75;10.00;;;;;15.71;79.20;101725.75;5061307;28;61901;-74
2021/12/31 08:04:41;;;;;;;;;10.00;9.00;;;;;15.72;78.86;101747.81;5076960;28;61780;-74
2021/12/31 08:07:06;;;;;;;;;9.00;9.00;;;;;15.76;79.31;101746.22;5060776;28;63075;-75
2021/12/31 08:09:31;;;;;;;;;13.50;11.00;;;;;15.81;78.99;101758.78;5060799;28;61978;-78
2021/12/31 08:11:57;;;;;;;;;10.75;9.75;;;;;15.81;79.06;101766.72;5061139;28;61837;-75
2021/12/31 08:14:22;;;;;;;;;9.25;9.25;;;;;15.87;78.96;101766.94;5076790;28;61789;-78
2021/12/31 08:16:48;;;;;;;;;12.25;9.50;;;;;15.95;79.24;101762.84;5058070;28;62155;-76
2021/12/31 08:19:13;;;;;;;;;14.00;11.00;;;;;16.01;79.26;101746.31;5047455;28;63717;-75
2021/12/31 08:21:39;;;;;;;;;14.00;12.50;;;;;16.08;79.08;101750.06;5060758;28;62038;-75
2021/12/31 08:24:04;;;;;;;;;7.25;7.25;;;;;16.12;78.89;101754.66;5040800;28;62333;-76
2021/12/31 08:26:30;;;;;;;;;10.50;10.50;;;;;16.17;78.95;101754.81;5043455;28;61763;-76
2021/12/31 08:28:55;;;;;;;;;11.50;10.25;;;;;16.18;78.94;101752.22;5039578;28;61891;-76
2021/12/31 08:31:21;;;;;;;;;11.50;11.00;;;;;16.18;78.78;101741.63;5040769;28;61810;-74
2021/12/31 08:33:46;;;;;;;;;14.25;14.00;;;;;16.15;78.64;101746.81;5056204;28;61907;-75
2021/12/31 08:36:12;;;;;;;;;12.75;12.25;;;;;16.03;78.77;101762.25;5060283;28;62224;-75
2021/12/31 08:38:37;;;;;;;;;11.75;7.75;;;;;16.00;79.20;101754.19;5060365;28;62799;-74
2021/12/31 08:41:03;;;;;;;;;11.25;11.00;;;;;16.10;79.28;101751.03;5060902;28;61975;-75
2021/12/31 08:43:28;;;;;;;;;16.75;12.25;;;;;16.21;78.99;101740.84;5060459;28;62310;-74
2021/12/31 08:45:54;;;;;;;;;14.25;12.50;;;;;16.23;79.03;101748.00;5060645;28;62013;-75
2021/12/31 08:48:19;;;;;;;;;13.25;10.25;;;;;16.28;78.97;101761.41;5077211;28;63768;-78
2021/12/31 08:50:45;;;;;;;;;18.25;16.75;;;;;16.40;78.82;101758.31;5061786;28;62222;-74
2021/12/31 08:53:13;;;;;;;;;16.00;13.00;;;;;16.49;78.53;101767.47;5062297;28;61928;-74
2021/12/31 08:55:39;;;;;;;;;14.50;13.25;;;;;16.51;78.53;101768.44;5062092;28;61908;-74
2021/12/31 08:58:05;;;;;;;;;13.50;9.00;;;;;16.61;78.45;101792.66;5061493;28;62045;-80
2021/12/31 09:00:31;;;;;;;;;6.75;6.75;;;;;16.58;78.38;101800.47;5062179;28;61992;-76
2021/12/31 09:02:57;;;;;;;;;9.75;8.50;;;;;16.63;78.41;101798.91;5062286;28;62047;-75
2021/12/31 09:05:22;;;;;;;;;12.75;11.75;;;;;16.68;78.37;101792.91;5061644;28;61880;-76
2021/12/31 09:07:49;;;;;;;;;11.50;11.00;;;;;16.69;78.31;101807.97;5053327;28;61972;-76
2021/12/31 09:10:16;;;;;;;;;13.00;11.25;;;;;16.69;78.50;101797.38;5041802;28;61779;-76
2021/12/31 09:12:44;;;;;;;;;10.00;9.00;;;;;16.73;78.38;101793.06;5041776;28;62314;-77
2021/12/31 09:15:10;;;;;;;;;11.75;11.75;;;;;16.77;78.65;101792.31;5041771;28;61787;-77
2021/12/31 09:17:35;;;;;;;;;11.50;10.00;;;;;16.78;78.50;101794.16;5039883;28;63696;-76
2021/12/31 09:20:02;;;;;;;;;22.00;18.00;;;;;16.69;78.20;101788.53;5041199;28;61788;-75
2021/12/31 09:22:27;;;;;;;;;11.75;10.25;;;;;16.71;78.55;101793.03;5057258;28;61811;-75
2021/12/31 09:24:53;;;;;;;;;11.75;8.25;;;;;16.64;77.28;101779.47;5057148;28;61951;-74
2021/12/31 09:27:19;;;;;;;;;14.50;9.00;;;;;16.63;78.04;101786.53;5040750;28;62168;-76
2021/12/31 09:29:44;;;;;;;;;11.75;9.00;;;;;16.64;78.17;101790.97;5041585;28;61832;-76
2021/12/31 09:32:10;;;;;;;;;11.50;9.25;;;;;16.63;78.32;101789.19;5043588;28;62507;-76
2021/12/31 09:34:35;;;;;;;;;10.00;10.00;;;;;16.62;78.54;101789.13;5060504;28;61768;-76
2021/12/31 09:37:01;;;;;;;;;13.75;13.50;;;;;16.66;78.61;101794.59;5047711;28;62559;-75
2021/12/31 09:39:26;;;;;;;;;16.00;13.25;;;;;16.62;78.19;101819.19;5048385;28;62322;-75
2021/12/31 09:41:52;;;;;;;;;15.50;12.25;;;;;16.62;78.57;101815.63;5048891;28;61824;-76
2021/12/31 09:44:21;;;;;;;;;18.00;16.25;;;;;16.65;78.20;101829.91;5044661;28;61834;-76
2021/12/31 09:46:47;;;;;;;;;15.25;12.25;;;;;16.64;78.08;101840.47;5044231;28;63195;-76
2021/12/31 09:49:12;;;;;;;;;15.00;9.00;;;;;16.60;77.79;101841.19;5044679;28;61973;-78
2021/12/31 09:51:42;;;;;;;;;10.25;7.75;;;;;16.69;77.71;101842.44;5043290;28;62019;-74
2021/12/31 09:54:08;;;;;;;;;10.25;8.50;;;;;16.72;77.76;101839.00;5047604;28;62005;-75
2021/12/31 09:56:39;;;;;;;;;7.50;6.00;;;;;16.71;77.60;101832.78;5064632;28;63678;-77
2021/12/31 09:59:04;;;;;;;;;11.50;6.50;;;;;16.80;77.60;101841.94;5063427;28;61976;-77
2021/12/31 10:01:30;;;;;;;;;11.25;8.50;;;;;16.87;77.26;101838.69;5064196;28;62042;-79
2021/12/31 10:03:57;;;;;;;;;8.50;7.25;;;;;16.94;77.96;101841.59;5064837;28;62131;-75
2021/12/31 10:06:24;;;;;;;;;7.00;7.00;;;;;16.98;76.95;101847.91;5064021;28;62713;-75
2021/12/31 10:08:49;;;;;;;;;8.00;8.00;;;;;17.06;76.55;101858.81;5064105;28;62029;-75
2021/12/31 10:11:23;;;;;;;;;7.75;7.50;;;;;17.11;76.49;101867.81;5064367;28;61999;-75
2021/12/31 10:13:51;;;;;;;;;10.25;8.25;;;;;17.21;76.77;101883.22;5064966;28;61727;-75
2021/12/31 10:16:28;;;;;;;;;10.75;10.75;;;;;17.28;76.64;101882.56;5063851;28;61980;-75
2021/12/31 10:19:08;;;;;;;;;15.25;12.00;;;;;17.38;76.03;101890.00;5064376;28;62055;-75
2021/12/31 10:21:54;;;;;;;;;12.00;10.25;;;;;17.51;75.94;101886.00;5064083;28;62042;-76
2021/12/31 10:24:25;;;;;;;;;11.00;8.00;;;;;17.55;75.46;101872.00;5064472;28;62067;-75
2021/12/31 10:26:52;;;;;;;;;15.00;11.25;;;;;17.60;75.02;101869.47;5062320;28;63840;-75
2021/12/31 10:29:18;;;;;;;;;9.25;9.25;;;;;17.64;75.22;101865.19;5064150;28;61750;-75
2021/12/31 10:31:46;;;;;;;;;11.75;8.25;;;;;17.82;75.16;101887.03;5064234;28;61880;-75
2021/12/31 10:34:32;;;;;;;;;13.00;8.00;;;;;17.92;74.71;101898.88;5064064;28;61800;-75
2021/12/31 10:37:03;;;;;;;;;8.75;7.00;;;;;17.96;74.66;101893.72;5063500;28;61984;-76
2021/12/31 10:39:37;;;;;;;;;8.75;8.25;;;;;18.02;74.26;101908.03;5062543;28;61782;-75
2021/12/31 10:42:08;;;;;;;;;5.25;5.25;;;;;18.12;74.52;101923.41;5062951;28;61827;-75
2021/12/31 10:44:53;;;;;;;;;11.00;8.75;;;;;18.25;73.82;101940.66;5062782;28;61909;-75
2021/12/31 10:47:22;;;;;;;;;15.00;12.00;;;;;18.30;73.94;101939.97;5063404;28;61785;-75
2021/12/31 10:50:08;;;;;;;;;12.25;3.75;;;;;18.36;74.20;101941.91;5064078;28;61784;-75
2021/12/31 10:52:55;;;;;;;;;9.25;8.50;;;;;18.37;74.08;101928.66;5063666;28;61742;-75
2021/12/31 10:55:29;;;;;;;;;12.00;6.00;;;;;18.37;73.76;101933.06;5064034;28;61841;-75
2021/12/31 10:58:03;;;;;;;;;5.25;4.50;;;;;18.35;73.47;101924.16;5063258;28;61931;-75
2021/12/31 11:00:34;;;;;;;;;8.25;4.00;;;;;18.42;73.52;101919.91;5063802;28;61714;-75
2021/12/31 11:03:01;;;;;;;;;4.50;4.50;;;;;18.51;74.31;101938.78;5064078;28;61938;-75
2021/12/31 11:05:26;;;;;;;;;3.25;3.25;;;;;18.56;73.80;101930.13;5063701;28;62154;-74
2021/12/31 11:07:53;;;;;;;;;7.75;3.50;;;;;18.62;73.65;101926.75;5063223;28;61698;-75
2021/12/31 11:10:25;;;;;;;;;2.75;2.75;;;;;18.65;73.70;101926.81;5063903;28;61907;-75
2021/12/31 11:12:52;;;;;;;;;4.25;4.25;;;;;18.77;73.57;101920.97;5063425;28;61900;-75
2021/12/31 11:15:18;;;;;;;;;5.50;5.50;;;;;18.88;73.55;101919.56;5062273;28;61880;-74
2021/12/31 11:17:44;;;;;;;;;4.50;4.50;;;;;18.95;73.60;101920.63;5062989;28;62727;-76
2021/12/31 11:20:11;;;;;;;;;7.75;3.75;;;;;19.07;73.01;101922.75;5063296;28;61726;-75
2021/12/31 11:22:37;;;;;;;;;4.75;4.25;;;;;19.17;72.84;101927.44;5063413;28;62052;-75
2021/12/31 11:25:17;;;;;;;;;4.00;4.00;;;;;19.26;72.44;101930.38;5062369;28;61840;-75